sensor_id;sensor_type;location;lat;lon;timestamp;temperature;humidity
4451;DHT22;2238;50.180;9.230;2022-08-03T00:01:48;20.30;99.90
4451;DHT22;2238;50.180;9.230;2022-08-03T00:04:48;20.40;99.90
4451;DHT22;2238;50.180;9.230;2022-08-03T00:07:49;20.00;99.90
4451;DHT22;2238;50.180;9.230;2022-08-03T00:10:49;19.80;99.90
4451;DHT22;2238;50.180;9.230;2022-08-03T00:13:50;19.70;99.90
4451;DHT22;2238;50.180;9.230;2022-08-03T00:19:51;19.60;99.90
4451;DHT22;2238;50.180;9.230;2022-08-03T00:22:52;19.40;99.90
4451;DHT22;2238;50.180;9.230;2022-08-03T00:25:53;19.30;99.90
4451;DHT22;2238;50.180;9.230;2022-08-03T00:28:53;19.50;99.90
4451;DHT22;2238;50.180;9.230;2022-08-03T00:31:54;19.60;99.90
4451;DHT22;2238;50.180;9.230;2022-08-03T00:34:54;19.80;99.90
4451;DHT22;2238;50.180;9.230;2022-08-03T00:37:55;19.70;99.90
4451;DHT22;2238;50.180;9.230;2022-08-03T00:40:56;19.50;99.90
4451;DHT22;2238;50.180;9.230;2022-08-03T00:43:56;19.50;99.90
4451;DHT22;2238;50.180;9.230;2022-08-03T00:46:57;19.50;99.90
4451;DHT22;2238;50.180;9.230;2022-08-03T00:49:57;20.10;99.90
4451;DHT22;2238;50.180;9.230;2022-08-03T00:52:59;19.40;99.90
4451;DHT22;2238;50.180;9.230;2022-08-03T00:55:59;19.50;99.90
4451;DHT22;2238;50.180;9.230;2022-08-03T00:59:00;19.50;99.90
4451;DHT22;2238;50.180;9.230;2022-08-03T01:02:02;20.60;99.90
4451;DHT22;2238;50.180;9.230;2022-08-03T01:05:03;19.70;99.90
4451;DHT22;2238;50.180;9.230;2022-08-03T01:11:44;19.20;99.90
4451;DHT22;2238;50.180;9.230;2022-08-03T01:14:57;18.90;99.90
4451;DHT22;2238;50.180;9.230;2022-08-03T01:18:07;22.20;99.90
4451;DHT22;2238;50.180;9.230;2022-08-03T01:21:25;19.00;99.90
4451;DHT22;2238;50.180;9.230;2022-08-03T01:27:53;19.00;99.90
4451;DHT22;2238;50.180;9.230;2022-08-03T01:31:00;19.00;99.90
4451;DHT22;2238;50.180;9.230;2022-08-03T01:34:06;19.00;99.90
4451;DHT22;2238;50.180;9.230;2022-08-03T01:37:10;19.40;99.90
4451;DHT22;2238;50.180;9.230;2022-08-03T01:40:12;19.30;99.90
4451;DHT22;2238;50.180;9.230;2022-08-03T01:43:18;19.50;99.90
4451;DHT22;2238;50.180;9.230;2022-08-03T01:46:20;19.20;99.90
4451;DHT22;2238;50.180;9.230;2022-08-03T01:49:23;21.20;99.90
4451;DHT22;2238;50.180;9.230;2022-08-03T01:52:25;19.30;99.90
4451;DHT22;2238;50.180;9.230;2022-08-03T01:55:28;19.40;99.90
4451;DHT22;2238;50.180;9.230;2022-08-03T01:58:31;19.30;99.90
4451;DHT22;2238;50.180;9.230;2022-08-03T02:01:35;19.70;99.90
4451;DHT22;2238;50.180;9.230;2022-08-03T02:04:37;20.30;99.90
4451;DHT22;2238;50.180;9.230;2022-08-03T02:07:40;20.50;99.90
4451;DHT22;2238;50.180;9.230;2022-08-03T02:10:42;20.60;99.90
4451;DHT22;2238;50.180;9.230;2022-08-03T02:13:47;20.60;99.90
4451;DHT22;2238;50.180;9.230;2022-08-03T02:16:50;20.50;99.90
4451;DHT22;2238;50.180;9.230;2022-08-03T02:19:53;20.50;99.90
4451;DHT22;2238;50.180;9.230;2022-08-03T02:22:55;22.70;99.90
4451;DHT22;2238;50.180;9.230;2022-08-03T02:26:02;20.80;99.90
4451;DHT22;2238;50.180;9.230;2022-08-03T02:29:07;20.20;99.90
4451;DHT22;2238;50.180;9.230;2022-08-03T02:32:16;20.30;99.90
4451;DHT22;2238;50.180;9.230;2022-08-03T02:35:20;22.70;99.90
4451;DHT22;2238;50.180;9.230;2022-08-03T02:38:27;20.30;99.90
4451;DHT22;2238;50.180;9.230;2022-08-03T02:41:36;20.30;99.90
4451;DHT22;2238;50.180;9.230;2022-08-03T02:44:38;20.50;99.90
4451;DHT22;2238;50.180;9.230;2022-08-03T02:47:40;20.50;99.90
4451;DHT22;2238;50.180;9.230;2022-08-03T02:50:43;20.30;99.90
4451;DHT22;2238;50.180;9.230;2022-08-03T02:53:45;20.40;99.90
4451;DHT22;2238;50.180;9.230;2022-08-03T02:56:47;19.90;99.90
4451;DHT22;2238;50.180;9.230;2022-08-03T02:59:48;20.30;99.90
4451;DHT22;2238;50.180;9.230;2022-08-03T03:02:50;20.40;99.90
4451;DHT22;2238;50.180;9.230;2022-08-03T03:05:51;22.30;99.90
4451;DHT22;2238;50.180;9.230;2022-08-03T03:08:53;20.40;99.90
4451;DHT22;2238;50.180;9.230;2022-08-03T03:11:54;20.30;99.90
4451;DHT22;2238;50.180;9.230;2022-08-03T03:14:56;20.40;99.90
4451;DHT22;2238;50.180;9.230;2022-08-03T03:17:58;20.40;99.90
4451;DHT22;2238;50.180;9.230;2022-08-03T03:21:00;22.30;99.90
4451;DHT22;2238;50.180;9.230;2022-08-03T03:24:03;20.30;99.90
4451;DHT22;2238;50.180;9.230;2022-08-03T03:27:04;20.40;99.90
4451;DHT22;2238;50.180;9.230;2022-08-03T03:30:05;20.40;99.90
4451;DHT22;2238;50.180;9.230;2022-08-03T03:33:06;20.40;99.90
4451;DHT22;2238;50.180;9.230;2022-08-03T03:36:07;22.10;99.90
4451;DHT22;2238;50.180;9.230;2022-08-03T03:39:07;20.20;99.90
4451;DHT22;2238;50.180;9.230;2022-08-03T03:42:10;20.30;99.90
4451;DHT22;2238;50.180;9.230;2022-08-03T03:45:11;20.10;99.90
4451;DHT22;2238;50.180;9.230;2022-08-03T03:48:12;20.00;99.90
4451;DHT22;2238;50.180;9.230;2022-08-03T03:51:14;19.80;99.90
4451;DHT22;2238;50.180;9.230;2022-08-03T03:54:15;19.70;99.90
4451;DHT22;2238;50.180;9.230;2022-08-03T03:57:15;19.40;99.90
4451;DHT22;2238;50.180;9.230;2022-08-03T04:00:17;19.40;99.90
4451;DHT22;2238;50.180;9.230;2022-08-03T04:03:18;19.10;99.90
4451;DHT22;2238;50.180;9.230;2022-08-03T04:06:19;18.70;99.90
4451;DHT22;2238;50.180;9.230;2022-08-03T04:09:40;18.80;99.90
4451;DHT22;2238;50.180;9.230;2022-08-03T04:13:01;19.30;99.90
4451;DHT22;2238;50.180;9.230;2022-08-03T04:16:05;19.30;99.90
4451;DHT22;2238;50.180;9.230;2022-08-03T04:19:12;19.40;99.90
4451;DHT22;2238;50.180;9.230;2022-08-03T04:22:24;18.90;99.90
4451;DHT22;2238;50.180;9.230;2022-08-03T04:25:29;18.80;99.90
4451;DHT22;2238;50.180;9.230;2022-08-03T04:28:31;18.80;99.90
4451;DHT22;2238;50.180;9.230;2022-08-03T04:31:34;18.80;99.90
4451;DHT22;2238;50.180;9.230;2022-08-03T04:34:36;18.80;99.90
4451;DHT22;2238;50.180;9.230;2022-08-03T04:37:46;18.80;99.90
4451;DHT22;2238;50.180;9.230;2022-08-03T04:40:48;19.10;99.90
4451;DHT22;2238;50.180;9.230;2022-08-03T04:43:51;19.30;99.90
4451;DHT22;2238;50.180;9.230;2022-08-03T04:46:53;19.40;99.90
4451;DHT22;2238;50.180;9.230;2022-08-03T04:49:55;19.40;99.90
4451;DHT22;2238;50.180;9.230;2022-08-03T04:52:56;19.50;99.90
4451;DHT22;2238;50.180;9.230;2022-08-03T04:56:03;19.50;99.90
4451;DHT22;2238;50.180;9.230;2022-08-03T04:59:04;19.40;99.90
4451;DHT22;2238;50.180;9.230;2022-08-03T05:02:05;19.60;99.90
4451;DHT22;2238;50.180;9.230;2022-08-03T05:05:06;19.70;99.90
4451;DHT22;2238;50.180;9.230;2022-08-03T05:08:07;19.60;99.90
4451;DHT22;2238;50.180;9.230;2022-08-03T05:11:08;19.30;99.90
4451;DHT22;2238;50.180;9.230;2022-08-03T05:14:08;19.20;99.90
4451;DHT22;2238;50.180;9.230;2022-08-03T05:17:09;19.30;99.90
4451;DHT22;2238;50.180;9.230;2022-08-03T05:20:10;19.40;99.90
4451;DHT22;2238;50.180;9.230;2022-08-03T05:23:11;19.40;99.90
4451;DHT22;2238;50.180;9.230;2022-08-03T05:26:11;19.60;99.90
4451;DHT22;2238;50.180;9.230;2022-08-03T05:29:12;19.60;99.90
4451;DHT22;2238;50.180;9.230;2022-08-03T05:32:13;19.60;99.90
4451;DHT22;2238;50.180;9.230;2022-08-03T05:35:14;19.70;99.90
4451;DHT22;2238;50.180;9.230;2022-08-03T05:38:15;21.30;99.90
4451;DHT22;2238;50.180;9.230;2022-08-03T05:41:16;19.80;99.90
4451;DHT22;2238;50.180;9.230;2022-08-03T05:44:17;19.90;99.90
4451;DHT22;2238;50.180;9.230;2022-08-03T05:47:17;19.80;99.90
4451;DHT22;2238;50.180;9.230;2022-08-03T05:50:19;19.90;99.90
4451;DHT22;2238;50.180;9.230;2022-08-03T05:53:20;20.10;99.90
4451;DHT22;2238;50.180;9.230;2022-08-03T05:56:22;20.00;99.90
4451;DHT22;2238;50.180;9.230;2022-08-03T05:59:23;20.20;99.90
4451;DHT22;2238;50.180;9.230;2022-08-03T06:02:29;20.30;99.90
4451;DHT22;2238;50.180;9.230;2022-08-03T06:05:29;21.30;99.90
4451;DHT22;2238;50.180;9.230;2022-08-03T06:08:30;20.50;99.90
4451;DHT22;2238;50.180;9.230;2022-08-03T06:11:31;20.50;99.90
4451;DHT22;2238;50.180;9.230;2022-08-03T06:14:32;20.60;99.90
4451;DHT22;2238;50.180;9.230;2022-08-03T06:17:32;21.80;99.90
4451;DHT22;2238;50.180;9.230;2022-08-03T06:20:33;20.80;99.90
4451;DHT22;2238;50.180;9.230;2022-08-03T06:23:33;21.00;99.90
4451;DHT22;2238;50.180;9.230;2022-08-03T06:26:34;21.20;99.90
4451;DHT22;2238;50.180;9.230;2022-08-03T06:29:35;22.70;99.90
4451;DHT22;2238;50.180;9.230;2022-08-03T06:32:36;21.40;99.90
4451;DHT22;2238;50.180;9.230;2022-08-03T06:35:37;21.60;99.90
4451;DHT22;2238;50.180;9.230;2022-08-03T06:38:38;21.90;99.90
4451;DHT22;2238;50.180;9.230;2022-08-03T06:41:38;23.00;99.90
4451;DHT22;2238;50.180;9.230;2022-08-03T06:44:39;22.10;99.90
4451;DHT22;2238;50.180;9.230;2022-08-03T06:47:39;23.10;99.90
4451;DHT22;2238;50.180;9.230;2022-08-03T06:50:41;22.10;99.90
4451;DHT22;2238;50.180;9.230;2022-08-03T06:53:41;22.20;99.90
4451;DHT22;2238;50.180;9.230;2022-08-03T06:56:42;22.40;99.90
4451;DHT22;2238;50.180;9.230;2022-08-03T06:59:43;22.80;99.90
4451;DHT22;2238;50.180;9.230;2022-08-03T07:02:44;22.80;99.90
4451;DHT22;2238;50.180;9.230;2022-08-03T07:05:44;22.90;99.90
4451;DHT22;2238;50.180;9.230;2022-08-03T07:08:46;24.50;99.90
4451;DHT22;2238;50.180;9.230;2022-08-03T07:11:47;22.90;99.90
4451;DHT22;2238;50.180;9.230;2022-08-03T07:14:47;23.10;99.90
4451;DHT22;2238;50.180;9.230;2022-08-03T07:17:48;23.60;99.90
4451;DHT22;2238;50.180;9.230;2022-08-03T07:20:49;23.50;99.90
4451;DHT22;2238;50.180;9.230;2022-08-03T07:23:49;23.70;99.90
4451;DHT22;2238;50.180;9.230;2022-08-03T07:26:50;23.80;99.90
4451;DHT22;2238;50.180;9.230;2022-08-03T07:29:50;24.10;99.90
4451;DHT22;2238;50.180;9.230;2022-08-03T07:32:51;23.70;99.90
4451;DHT22;2238;50.180;9.230;2022-08-03T07:35:51;24.50;99.90
4451;DHT22;2238;50.180;9.230;2022-08-03T07:38:52;24.50;99.90
4451;DHT22;2238;50.180;9.230;2022-08-03T07:41:53;25.00;99.90
4451;DHT22;2238;50.180;9.230;2022-08-03T07:44:53;25.30;99.90
4451;DHT22;2238;50.180;9.230;2022-08-03T07:47:54;25.20;99.90
4451;DHT22;2238;50.180;9.230;2022-08-03T07:50:54;25.10;99.90
4451;DHT22;2238;50.180;9.230;2022-08-03T07:53:55;25.20;99.90
4451;DHT22;2238;50.180;9.230;2022-08-03T07:56:57;25.50;99.90
4451;DHT22;2238;50.180;9.230;2022-08-03T07:59:57;25.60;99.90
4451;DHT22;2238;50.180;9.230;2022-08-03T08:02:58;25.50;99.90
4451;DHT22;2238;50.180;9.230;2022-08-03T08:05:58;25.80;99.90
4451;DHT22;2238;50.180;9.230;2022-08-03T08:08:59;25.90;99.90
4451;DHT22;2238;50.180;9.230;2022-08-03T08:12:01;26.40;99.90
4451;DHT22;2238;50.180;9.230;2022-08-03T08:15:03;26.60;99.90
4451;DHT22;2238;50.180;9.230;2022-08-03T08:18:04;26.80;99.90
4451;DHT22;2238;50.180;9.230;2022-08-03T08:21:04;26.80;99.90
4451;DHT22;2238;50.180;9.230;2022-08-03T08:24:05;27.00;99.90
4451;DHT22;2238;50.180;9.230;2022-08-03T08:27:06;27.10;99.90
4451;DHT22;2238;50.180;9.230;2022-08-03T08:30:08;27.30;99.90
4451;DHT22;2238;50.180;9.230;2022-08-03T08:33:09;27.30;99.90
4451;DHT22;2238;50.180;9.230;2022-08-03T08:36:10;27.40;99.90
4451;DHT22;2238;50.180;9.230;2022-08-03T08:39:10;27.80;99.90
4451;DHT22;2238;50.180;9.230;2022-08-03T08:42:11;28.00;99.90
4451;DHT22;2238;50.180;9.230;2022-08-03T08:45:12;28.20;99.90
4451;DHT22;2238;50.180;9.230;2022-08-03T08:48:21;28.40;99.90
4451;DHT22;2238;50.180;9.230;2022-08-03T08:51:27;28.50;99.90
4451;DHT22;2238;50.180;9.230;2022-08-03T08:54:32;28.70;99.90
4451;DHT22;2238;50.180;9.230;2022-08-03T08:57:49;28.80;99.90
4451;DHT22;2238;50.180;9.230;2022-08-03T09:00:56;28.70;99.90
4451;DHT22;2238;50.180;9.230;2022-08-03T09:03:57;28.80;99.90
4451;DHT22;2238;50.180;9.230;2022-08-03T09:06:58;28.80;99.90
4451;DHT22;2238;50.180;9.230;2022-08-03T09:09:58;29.20;99.90
4451;DHT22;2238;50.180;9.230;2022-08-03T09:12:59;29.30;99.90
4451;DHT22;2238;50.180;9.230;2022-08-03T09:16:20;29.40;99.90
4451;DHT22;2238;50.180;9.230;2022-08-03T09:19:21;30.00;99.90
4451;DHT22;2238;50.180;9.230;2022-08-03T09:22:21;30.00;99.90
4451;DHT22;2238;50.180;9.230;2022-08-03T09:25:36;30.00;99.90
4451;DHT22;2238;50.180;9.230;2022-08-03T09:28:37;30.40;99.90
4451;DHT22;2238;50.180;9.230;2022-08-03T09:31:40;30.60;99.90
4451;DHT22;2238;50.180;9.230;2022-08-03T09:34:41;29.90;99.90
4451;DHT22;2238;50.180;9.230;2022-08-03T09:37:42;30.20;99.90
4451;DHT22;2238;50.180;9.230;2022-08-03T09:40:44;30.40;99.90
4451;DHT22;2238;50.180;9.230;2022-08-03T09:43:45;30.30;99.90
4451;DHT22;2238;50.180;9.230;2022-08-03T09:46:47;30.50;99.90
4451;DHT22;2238;50.180;9.230;2022-08-03T09:50:00;30.40;99.90
4451;DHT22;2238;50.180;9.230;2022-08-03T09:53:01;30.70;99.90
4451;DHT22;2238;50.180;9.230;2022-08-03T09:56:02;30.60;99.90
4451;DHT22;2238;50.180;9.230;2022-08-03T09:59:03;30.80;99.90
4451;DHT22;2238;50.180;9.230;2022-08-03T10:02:04;30.70;99.90
4451;DHT22;2238;50.180;9.230;2022-08-03T10:05:06;31.10;99.90
4451;DHT22;2238;50.180;9.230;2022-08-03T10:08:17;31.30;99.90
4451;DHT22;2238;50.180;9.230;2022-08-03T10:11:29;31.60;99.90
4451;DHT22;2238;50.180;9.230;2022-08-03T10:36:15;31.10;99.90
4451;DHT22;2238;50.180;9.230;2022-08-03T10:39:18;31.50;99.90
4451;DHT22;2238;50.180;9.230;2022-08-03T10:42:23;32.40;99.90
4451;DHT22;2238;50.180;9.230;2022-08-03T10:45:26;32.50;99.90
4451;DHT22;2238;50.180;9.230;2022-08-03T10:48:27;32.20;99.90
4451;DHT22;2238;50.180;9.230;2022-08-03T10:51:28;32.40;99.90
4451;DHT22;2238;50.180;9.230;2022-08-03T10:54:43;32.50;99.90
4451;DHT22;2238;50.180;9.230;2022-08-03T10:58:02;32.30;99.90
4451;DHT22;2238;50.180;9.230;2022-08-03T11:01:06;32.70;99.90
4451;DHT22;2238;50.180;9.230;2022-08-03T11:07:23;32.70;99.90
4451;DHT22;2238;50.180;9.230;2022-08-03T11:10:31;32.50;99.90
4451;DHT22;2238;50.180;9.230;2022-08-03T11:13:31;32.10;99.90
4451;DHT22;2238;50.180;9.230;2022-08-03T11:17:14;32.70;99.90
4451;DHT22;2238;50.180;9.230;2022-08-03T11:20:14;33.00;99.90
4451;DHT22;2238;50.180;9.230;2022-08-03T11:23:17;32.50;99.90
4451;DHT22;2238;50.180;9.230;2022-08-03T11:26:19;33.40;99.90
4451;DHT22;2238;50.180;9.230;2022-08-03T11:29:29;33.70;99.90
4451;DHT22;2238;50.180;9.230;2022-08-03T11:35:58;34.10;99.90
4451;DHT22;2238;50.180;9.230;2022-08-03T11:39:13;34.00;99.90
4451;DHT22;2238;50.180;9.230;2022-08-03T11:45:23;33.00;99.90
4451;DHT22;2238;50.180;9.230;2022-08-03T11:48:27;33.40;99.90
4451;DHT22;2238;50.180;9.230;2022-08-03T11:51:30;33.20;99.90
4451;DHT22;2238;50.180;9.230;2022-08-03T11:54:33;33.80;99.90
4451;DHT22;2238;50.180;9.230;2022-08-03T11:57:35;33.90;99.90
4451;DHT22;2238;50.180;9.230;2022-08-03T12:00:35;33.80;99.90
4451;DHT22;2238;50.180;9.230;2022-08-03T12:03:36;34.00;99.90
4451;DHT22;2238;50.180;9.230;2022-08-03T12:06:37;33.60;99.90
4451;DHT22;2238;50.180;9.230;2022-08-03T12:10:10;33.30;99.90
4451;DHT22;2238;50.180;9.230;2022-08-03T12:13:11;33.30;99.90
4451;DHT22;2238;50.180;9.230;2022-08-03T12:16:21;33.70;99.90
4451;DHT22;2238;50.180;9.230;2022-08-03T12:19:22;33.50;99.90
4451;DHT22;2238;50.180;9.230;2022-08-03T12:22:33;33.50;99.90
4451;DHT22;2238;50.180;9.230;2022-08-03T12:25:35;33.50;99.90
4451;DHT22;2238;50.180;9.230;2022-08-03T12:28:36;33.30;99.90
4451;DHT22;2238;50.180;9.230;2022-08-03T12:31:36;33.90;99.90
4451;DHT22;2238;50.180;9.230;2022-08-03T12:34:44;33.90;99.90
4451;DHT22;2238;50.180;9.230;2022-08-03T12:37:47;33.70;99.90
4451;DHT22;2238;50.180;9.230;2022-08-03T12:40:56;34.10;99.90
4451;DHT22;2238;50.180;9.230;2022-08-03T12:43:57;33.50;99.90
4451;DHT22;2238;50.180;9.230;2022-08-03T12:46:59;33.70;99.90
4451;DHT22;2238;50.180;9.230;2022-08-03T12:49:59;33.80;99.90
4451;DHT22;2238;50.180;9.230;2022-08-03T12:53:02;33.70;99.90
4451;DHT22;2238;50.180;9.230;2022-08-03T12:56:04;33.70;99.90
4451;DHT22;2238;50.180;9.230;2022-08-03T12:59:27;34.00;99.90
4451;DHT22;2238;50.180;9.230;2022-08-03T13:02:28;33.90;99.90
4451;DHT22;2238;50.180;9.230;2022-08-03T13:05:29;34.10;99.90
4451;DHT22;2238;50.180;9.230;2022-08-03T13:08:30;33.90;99.90
4451;DHT22;2238;50.180;9.230;2022-08-03T13:11:31;33.80;99.90
4451;DHT22;2238;50.180;9.230;2022-08-03T13:14:32;34.00;99.90
4451;DHT22;2238;50.180;9.230;2022-08-03T13:17:33;34.00;99.90
4451;DHT22;2238;50.180;9.230;2022-08-03T13:20:34;33.70;99.90
4451;DHT22;2238;50.180;9.230;2022-08-03T13:23:35;33.90;99.90
4451;DHT22;2238;50.180;9.230;2022-08-03T13:26:35;33.90;99.90
4451;DHT22;2238;50.180;9.230;2022-08-03T13:29:36;34.10;99.90
4451;DHT22;2238;50.180;9.230;2022-08-03T13:32:37;34.10;99.90
4451;DHT22;2238;50.180;9.230;2022-08-03T13:35:37;33.70;99.90
4451;DHT22;2238;50.180;9.230;2022-08-03T13:38:38;33.80;99.90
4451;DHT22;2238;50.180;9.230;2022-08-03T13:41:38;33.50;99.90
4451;DHT22;2238;50.180;9.230;2022-08-03T13:44:39;33.60;99.90
4451;DHT22;2238;50.180;9.230;2022-08-03T13:47:40;33.70;99.90
4451;DHT22;2238;50.180;9.230;2022-08-03T13:50:40;33.60;99.90
4451;DHT22;2238;50.180;9.230;2022-08-03T13:53:41;33.40;99.90
4451;DHT22;2238;50.180;9.230;2022-08-03T13:56:41;33.30;99.90
4451;DHT22;2238;50.180;9.230;2022-08-03T13:59:48;33.60;99.90
4451;DHT22;2238;50.180;9.230;2022-08-03T14:02:50;33.30;99.90
4451;DHT22;2238;50.180;9.230;2022-08-03T14:05:51;33.50;99.90
4451;DHT22;2238;50.180;9.230;2022-08-03T14:08:51;33.60;99.90
4451;DHT22;2238;50.180;9.230;2022-08-03T14:11:53;33.60;99.90
4451;DHT22;2238;50.180;9.230;2022-08-03T14:14:53;33.50;99.90
4451;DHT22;2238;50.180;9.230;2022-08-03T14:17:54;33.40;99.90
4451;DHT22;2238;50.180;9.230;2022-08-03T14:20:56;33.50;99.90
4451;DHT22;2238;50.180;9.230;2022-08-03T14:23:57;33.80;99.90
4451;DHT22;2238;50.180;9.230;2022-08-03T14:26:58;33.50;99.90
4451;DHT22;2238;50.180;9.230;2022-08-03T14:29:58;33.50;99.90
4451;DHT22;2238;50.180;9.230;2022-08-03T14:33:00;33.50;99.90
4451;DHT22;2238;50.180;9.230;2022-08-03T14:36:01;33.50;99.90
4451;DHT22;2238;50.180;9.230;2022-08-03T14:39:01;33.40;99.90
4451;DHT22;2238;50.180;9.230;2022-08-03T14:42:02;33.50;99.90
4451;DHT22;2238;50.180;9.230;2022-08-03T14:45:03;33.10;99.90
4451;DHT22;2238;50.180;9.230;2022-08-03T14:48:04;33.30;99.90
4451;DHT22;2238;50.180;9.230;2022-08-03T14:51:05;33.30;99.90
4451;DHT22;2238;50.180;9.230;2022-08-03T14:54:05;33.50;99.90
4451;DHT22;2238;50.180;9.230;2022-08-03T14:57:06;33.60;99.90
4451;DHT22;2238;50.180;9.230;2022-08-03T15:00:07;33.40;99.90
4451;DHT22;2238;50.180;9.230;2022-08-03T15:03:08;33.30;99.90
4451;DHT22;2238;50.180;9.230;2022-08-03T15:06:09;32.90;99.90
4451;DHT22;2238;50.180;9.230;2022-08-03T15:09:09;33.10;99.90
4451;DHT22;2238;50.180;9.230;2022-08-03T15:12:10;32.90;99.90
4451;DHT22;2238;50.180;9.230;2022-08-03T15:15:11;32.90;99.90
4451;DHT22;2238;50.180;9.230;2022-08-03T15:18:11;32.90;99.90
4451;DHT22;2238;50.180;9.230;2022-08-03T15:21:12;32.80;99.90
4451;DHT22;2238;50.180;9.230;2022-08-03T15:24:12;33.10;99.90
4451;DHT22;2238;50.180;9.230;2022-08-03T15:27:13;33.10;99.90
4451;DHT22;2238;50.180;9.230;2022-08-03T15:30:14;33.20;99.90
4451;DHT22;2238;50.180;9.230;2022-08-03T15:33:14;33.10;99.90
4451;DHT22;2238;50.180;9.230;2022-08-03T15:36:16;33.30;99.90
4451;DHT22;2238;50.180;9.230;2022-08-03T15:39:17;33.10;99.90
4451;DHT22;2238;50.180;9.230;2022-08-03T15:42:18;33.20;99.90
4451;DHT22;2238;50.180;9.230;2022-08-03T15:45:19;33.00;99.90
4451;DHT22;2238;50.180;9.230;2022-08-03T15:48:19;33.30;99.90
4451;DHT22;2238;50.180;9.230;2022-08-03T15:51:22;33.20;99.90
4451;DHT22;2238;50.180;9.230;2022-08-03T15:54:23;33.10;99.90
4451;DHT22;2238;50.180;9.230;2022-08-03T15:57:23;33.10;99.90
4451;DHT22;2238;50.180;9.230;2022-08-03T16:00:24;33.40;99.90
4451;DHT22;2238;50.180;9.230;2022-08-03T16:03:25;33.40;99.90
4451;DHT22;2238;50.180;9.230;2022-08-03T16:06:27;33.30;99.90
4451;DHT22;2238;50.180;9.230;2022-08-03T16:09:28;33.20;99.90
4451;DHT22;2238;50.180;9.230;2022-08-03T16:12:28;33.10;99.90
4451;DHT22;2238;50.180;9.230;2022-08-03T16:15:29;33.30;99.90
4451;DHT22;2238;50.180;9.230;2022-08-03T16:18:30;32.90;99.90
4451;DHT22;2238;50.180;9.230;2022-08-03T16:21:31;32.80;99.90
4451;DHT22;2238;50.180;9.230;2022-08-03T16:24:31;32.90;99.90
4451;DHT22;2238;50.180;9.230;2022-08-03T16:27:32;33.00;99.90
4451;DHT22;2238;50.180;9.230;2022-08-03T16:30:33;33.00;99.90
4451;DHT22;2238;50.180;9.230;2022-08-03T16:33:33;32.90;99.90
4451;DHT22;2238;50.180;9.230;2022-08-03T16:36:34;33.00;99.90
4451;DHT22;2238;50.180;9.230;2022-08-03T16:39:34;32.90;99.90
4451;DHT22;2238;50.180;9.230;2022-08-03T16:42:36;32.90;99.90
4451;DHT22;2238;50.180;9.230;2022-08-03T16:45:36;32.90;99.90
4451;DHT22;2238;50.180;9.230;2022-08-03T16:48:37;32.90;99.90
4451;DHT22;2238;50.180;9.230;2022-08-03T16:51:39;33.00;99.90
4451;DHT22;2238;50.180;9.230;2022-08-03T16:54:40;33.00;99.90
4451;DHT22;2238;50.180;9.230;2022-08-03T16:57:40;32.80;99.90
4451;DHT22;2238;50.180;9.230;2022-08-03T17:00:41;32.80;99.90
4451;DHT22;2238;50.180;9.230;2022-08-03T17:03:43;32.80;99.90
4451;DHT22;2238;50.180;9.230;2022-08-03T17:06:43;32.90;99.90
4451;DHT22;2238;50.180;9.230;2022-08-03T17:09:45;32.80;99.90
4451;DHT22;2238;50.180;9.230;2022-08-03T17:12:46;33.00;99.90
4451;DHT22;2238;50.180;9.230;2022-08-03T17:15:47;32.80;99.90
4451;DHT22;2238;50.180;9.230;2022-08-03T17:18:51;32.70;99.90
4451;DHT22;2238;50.180;9.230;2022-08-03T17:22:05;32.70;99.90
4451;DHT22;2238;50.180;9.230;2022-08-03T17:25:08;32.60;99.90
4451;DHT22;2238;50.180;9.230;2022-08-03T17:28:10;32.60;99.90
4451;DHT22;2238;50.180;9.230;2022-08-03T17:31:12;32.50;99.90
4451;DHT22;2238;50.180;9.230;2022-08-03T17:34:18;32.50;99.90
4451;DHT22;2238;50.180;9.230;2022-08-03T17:37:20;32.50;99.90
4451;DHT22;2238;50.180;9.230;2022-08-03T17:40:21;32.40;99.90
4451;DHT22;2238;50.180;9.230;2022-08-03T17:43:22;32.40;99.90
4451;DHT22;2238;50.180;9.230;2022-08-03T17:46:24;32.40;99.90
4451;DHT22;2238;50.180;9.230;2022-08-03T17:49:25;32.30;99.90
4451;DHT22;2238;50.180;9.230;2022-08-03T17:52:40;32.20;99.90
4451;DHT22;2238;50.180;9.230;2022-08-03T17:55:46;33.00;99.90
4451;DHT22;2238;50.180;9.230;2022-08-03T17:59:02;32.20;99.90
4451;DHT22;2238;50.180;9.230;2022-08-03T18:02:35;32.10;99.90
4451;DHT22;2238;50.180;9.230;2022-08-03T18:05:58;32.10;99.90
4451;DHT22;2238;50.180;9.230;2022-08-03T18:09:00;31.90;99.90
4451;DHT22;2238;50.180;9.230;2022-08-03T18:12:05;31.60;99.90
4451;DHT22;2238;50.180;9.230;2022-08-03T18:15:12;31.30;99.90
4451;DHT22;2238;50.180;9.230;2022-08-03T18:18:15;31.00;99.90
4451;DHT22;2238;50.180;9.230;2022-08-03T18:21:16;30.30;99.90
4451;DHT22;2238;50.180;9.230;2022-08-03T18:24:22;30.20;99.90
4451;DHT22;2238;50.180;9.230;2022-08-03T18:27:23;30.00;99.90
4451;DHT22;2238;50.180;9.230;2022-08-03T18:30:24;30.00;99.90
4451;DHT22;2238;50.180;9.230;2022-08-03T18:33:25;29.90;99.90
4451;DHT22;2238;50.180;9.230;2022-08-03T18:36:29;29.60;99.90
4451;DHT22;2238;50.180;9.230;2022-08-03T18:39:31;29.40;99.90
4451;DHT22;2238;50.180;9.230;2022-08-03T18:42:32;29.30;99.90
4451;DHT22;2238;50.180;9.230;2022-08-03T18:45:37;29.10;99.90
4451;DHT22;2238;50.180;9.230;2022-08-03T18:49:09;26.70;99.90
4451;DHT22;2238;50.180;9.230;2022-08-03T18:52:16;28.80;99.90
4451;DHT22;2238;50.180;9.230;2022-08-03T18:55:20;28.80;99.90
4451;DHT22;2238;50.180;9.230;2022-08-03T19:01:43;28.30;99.90
4451;DHT22;2238;50.180;9.230;2022-08-03T19:04:46;28.10;99.90
4451;DHT22;2238;50.180;9.230;2022-08-03T19:07:57;28.10;99.90
4451;DHT22;2238;50.180;9.230;2022-08-03T19:11:01;28.00;99.90
4451;DHT22;2238;50.180;9.230;2022-08-03T19:14:04;28.00;99.90
4451;DHT22;2238;50.180;9.230;2022-08-03T19:17:10;27.80;99.90
4451;DHT22;2238;50.180;9.230;2022-08-03T19:20:11;27.60;99.90
4451;DHT22;2238;50.180;9.230;2022-08-03T19:23:12;27.30;99.90
4451;DHT22;2238;50.180;9.230;2022-08-03T19:26:15;27.20;99.90
4451;DHT22;2238;50.180;9.230;2022-08-03T19:29:16;27.20;99.90
4451;DHT22;2238;50.180;9.230;2022-08-03T19:32:17;27.30;99.90
4451;DHT22;2238;50.180;9.230;2022-08-03T19:35:18;27.20;99.90
4451;DHT22;2238;50.180;9.230;2022-08-03T19:38:19;27.00;99.90
4451;DHT22;2238;50.180;9.230;2022-08-03T19:41:20;27.00;99.90
4451;DHT22;2238;50.180;9.230;2022-08-03T19:44:28;27.10;99.90
4451;DHT22;2238;50.180;9.230;2022-08-03T19:47:34;26.90;99.90
4451;DHT22;2238;50.180;9.230;2022-08-03T19:50:37;26.80;99.90
4451;DHT22;2238;50.180;9.230;2022-08-03T19:53:39;26.80;99.90
4451;DHT22;2238;50.180;9.230;2022-08-03T19:56:48;26.70;99.90
4451;DHT22;2238;50.180;9.230;2022-08-03T19:59:52;26.60;99.90
4451;DHT22;2238;50.180;9.230;2022-08-03T20:02:53;26.70;99.90
4451;DHT22;2238;50.180;9.230;2022-08-03T20:05:58;26.80;99.90
4451;DHT22;2238;50.180;9.230;2022-08-03T20:10:08;26.70;99.90
4451;DHT22;2238;50.180;9.230;2022-08-03T20:13:09;26.60;99.90
4451;DHT22;2238;50.180;9.230;2022-08-03T20:16:10;26.60;99.90
4451;DHT22;2238;50.180;9.230;2022-08-03T20:19:12;26.80;99.90
4451;DHT22;2238;50.180;9.230;2022-08-03T20:22:13;26.70;99.90
4451;DHT22;2238;50.180;9.230;2022-08-03T20:25:15;26.70;99.90
4451;DHT22;2238;50.180;9.230;2022-08-03T20:28:46;26.60;99.90
4451;DHT22;2238;50.180;9.230;2022-08-03T20:31:47;26.60;99.90
4451;DHT22;2238;50.180;9.230;2022-08-03T20:34:48;26.60;99.90
4451;DHT22;2238;50.180;9.230;2022-08-03T20:37:49;26.50;99.90
4451;DHT22;2238;50.180;9.230;2022-08-03T20:40:50;26.40;99.90